Time;durP1;ratioP1;P1;durP2;ratioP2;P2;SDS_P1;SDS_P2;PMS_P1;PMS_P2;Temp;Humidity;BMP_temperature;BMP_pressure;BME280_temperature;BME280_humidity;BME280_pressure;Samples;Min_cycle;Max_cycle;Signal;HPM_P1;HPM_P2
2022/02/26 00:00:44;;;;;;;42.42;15.38;;;2.30;99.90;;;;;;5032997;28;20464;-54
2022/02/26 00:03:11;;;;;;;33.63;14.63;;;2.40;99.90;;;;;;5033327;28;20032;-55
2022/02/26 00:05:37;;;;;;;39.38;14.90;;;2.50;99.90;;;;;;5033833;28;20018;-55
2022/02/26 00:08:03;;;;;;;34.97;15.65;;;2.40;99.90;;;;;;5033211;28;20028;-54
2022/02/26 00:10:28;;;;;;;37.97;14.93;;;2.40;99.90;;;;;;5033222;28;20512;-55
2022/02/26 00:12:55;;;;;;;42.90;14.98;;;2.30;99.90;;;;;;5032890;28;20467;-55
2022/02/26 00:15:22;;;;;;;42.45;14.60;;;2.40;99.90;;;;;;5033165;28;20079;-55
2022/02/26 00:17:48;;;;;;;47.13;13.95;;;2.50;99.90;;;;;;5032480;28;20075;-55
2022/02/26 00:20:15;;;;;;;38.00;14.98;;;2.50;99.90;;;;;;5032552;28;20026;-55
2022/02/26 00:22:41;;;;;;;38.05;13.80;;;2.70;99.90;;;;;;5032449;28;20025;-55
2022/02/26 00:25:07;;;;;;;43.47;13.60;;;2.80;99.90;;;;;;5032616;28;20325;-54
2022/02/26 00:27:33;;;;;;;40.70;14.05;;;2.80;99.90;;;;;;5030960;28;20029;-55
2022/02/26 00:29:59;;;;;;;45.83;15.85;;;2.80;99.90;;;;;;5032587;28;20032;-55
2022/02/26 00:32:24;;;;;;;38.15;15.05;;;2.80;99.90;;;;;;5032563;28;20049;-55
2022/02/26 00:34:50;;;;;;;39.45;14.30;;;2.90;99.90;;;;;;5032640;28;20412;-54
2022/02/26 00:37:16;;;;;;;38.83;14.05;;;2.80;99.90;;;;;;5032064;28;20479;-55
2022/02/26 00:39:42;;;;;;;36.00;14.07;;;2.80;99.90;;;;;;5032097;28;20029;-55
2022/02/26 00:42:08;;;;;;;42.08;14.88;;;2.90;99.90;;;;;;5032960;28;20027;-55
2022/02/26 00:44:34;;;;;;;44.05;14.75;;;2.90;99.90;;;;;;5031359;28;20296;-55
2022/02/26 00:47:00;;;;;;;35.38;13.80;;;2.90;99.90;;;;;;5032156;28;20104;-54
2022/02/26 00:52:10;;;;;;;26.83;13.07;;;2.70;99.90;;;;;;5031982;28;20024;-55
2022/02/26 00:54:35;;;;;;;34.78;12.95;;;2.50;99.90;;;;;;5031899;28;20391;-55
2022/02/26 00:57:01;;;;;;;27.98;14.38;;;2.30;99.90;;;;;;5032056;28;20022;-55
2022/02/26 00:59:27;;;;;;;29.42;13.35;;;2.10;99.90;;;;;;5031838;28;20030;-55
2022/02/26 01:01:52;;;;;;;38.30;16.40;;;2.10;99.90;;;;;;5032171;28;20097;-55
2022/02/26 01:04:18;;;;;;;33.50;14.68;;;2.00;99.90;;;;;;5031677;28;20045;-55
2022/02/26 01:06:44;;;;;;;37.08;15.82;;;1.90;99.90;;;;;;5031514;28;20101;-55
2022/02/26 01:09:09;;;;;;;32.05;15.68;;;1.80;99.90;;;;;;5031420;28;20084;-54
2022/02/26 01:11:35;;;;;;;38.80;15.07;;;1.60;99.90;;;;;;5031740;28;20025;-55
2022/02/26 01:14:01;;;;;;;33.83;15.75;;;1.40;99.90;;;;;;5031679;28;20025;-54
2022/02/26 01:16:26;;;;;;;33.63;18.08;;;1.30;99.90;;;;;;5031232;28;20040;-54
2022/02/26 01:18:52;;;;;;;47.47;18.73;;;1.30;99.90;;;;;;5031342;28;20033;-55
2022/02/26 01:21:19;;;;;;;43.22;18.13;;;1.20;99.90;;;;;;5031338;28;20037;-54
2022/02/26 01:23:44;;;;;;;36.88;17.33;;;1.20;99.90;;;;;;5031373;28;20100;-55
2022/02/26 01:26:10;;;;;;;35.95;18.58;;;1.20;99.90;;;;;;5031361;28;20096;-54
2022/02/26 01:28:36;;;;;;;45.97;18.20;;;1.20;99.90;;;;;;5031065;28;20064;-52
2022/02/26 01:31:03;;;;;;;45.30;18.58;;;1.20;99.90;;;;;;5031276;28;20073;-52
2022/02/26 01:33:28;;;;;;;43.63;20.45;;;1.20;99.90;;;;;;5031582;28;20037;-55
2022/02/26 01:35:54;;;;;;;42.17;18.25;;;1.20;99.90;;;;;;5031156;28;20490;-55
2022/02/26 01:38:20;;;;;;;37.97;17.73;;;1.30;99.90;;;;;;5030825;28;20025;-55
2022/02/26 01:40:45;;;;;;;38.60;17.55;;;1.30;99.90;;;;;;5030830;28;20025;-54
2022/02/26 01:43:11;;;;;;;37.10;17.98;;;1.20;99.90;;;;;;5030694;28;20022;-55
2022/02/26 01:45:36;;;;;;;48.05;22.20;;;1.10;99.90;;;;;;5030905;28;20033;-55
2022/02/26 01:48:02;;;;;;;41.75;21.00;;;1.10;99.90;;;;;;5030368;28;20022;-54
2022/02/26 01:50:29;;;;;;;40.85;20.63;;;1.20;99.90;;;;;;5030915;28;20040;-54
2022/02/26 01:52:57;;;;;;;38.83;20.63;;;1.10;99.90;;;;;;5030635;28;20030;-55
2022/02/26 01:55:24;;;;;;;51.22;23.25;;;1.10;99.90;;;;;;5030861;28;20072;-54
2022/02/26 01:57:49;;;;;;;44.17;23.90;;;1.00;99.90;;;;;;5029346;28;20029;-54
2022/02/26 02:00:16;;;;;;;41.40;22.75;;;1.00;99.90;;;;;;5030828;28;20080;-55
2022/02/26 02:02:42;;;;;;;43.50;21.90;;;1.00;99.90;;;;;;5030843;28;20029;-55
2022/02/26 02:05:08;;;;;;;39.53;21.23;;;1.10;99.90;;;;;;5030661;28;20029;-54
2022/02/26 02:07:34;;;;;;;39.22;21.83;;;1.10;99.90;;;;;;5030404;28;20352;-55
2022/02/26 02:10:00;;;;;;;42.17;21.98;;;1.10;99.90;;;;;;5030860;28;20025;-54
2022/02/26 02:12:26;;;;;;;36.13;21.02;;;1.00;99.90;;;;;;5030421;28;20104;-55
2022/02/26 02:14:52;;;;;;;42.35;22.30;;;1.10;99.90;;;;;;5030651;28;20036;-55
2022/02/26 02:17:21;;;;;;;53.30;23.90;;;1.10;99.90;;;;;;5030453;28;20510;-55
2022/02/26 02:19:47;;;;;;;43.15;23.08;;;1.20;99.90;;;;;;5030625;28;20056;-55
2022/02/26 02:22:17;;;;;;;41.55;21.65;;;1.40;99.90;;;;;;5029967;28;20422;-55
2022/02/26 02:24:43;;;;;;;39.33;19.10;;;1.30;99.90;;;;;;5030824;28;20077;-53
2022/02/26 02:27:10;;;;;;;44.00;20.90;;;1.30;99.90;;;;;;5030607;28;20109;-53
2022/02/26 02:29:36;;;;;;;40.78;20.85;;;1.30;99.90;;;;;;5030286;28;20033;-55
2022/02/26 02:32:02;;;;;;;34.70;19.58;;;1.20;99.90;;;;;;5029701;28;20499;-55
2022/02/26 02:34:28;;;;;;;48.08;22.00;;;1.20;99.90;;;;;;5030491;28;20490;-55
2022/02/26 02:36:53;;;;;;;37.45;19.40;;;1.10;99.90;;;;;;5030410;28;20109;-52
2022/02/26 02:39:19;;;;;;;36.38;19.08;;;1.10;99.90;;;;;;5031281;28;20114;-54
2022/02/26 02:41:46;;;;;;;42.53;21.40;;;1.10;99.90;;;;;;5034494;28;20405;-55
2022/02/26 02:44:13;;;;;;;52.42;22.45;;;1.20;99.90;;;;;;5034653;28;20382;-55
2022/02/26 02:46:42;;;;;;;47.85;22.02;;;1.30;99.90;;;;;;5034389;28;20406;-55
2022/02/26 02:49:08;;;;;;;56.47;22.20;;;1.50;99.90;;;;;;5034161;28;20097;-55
2022/02/26 02:51:34;;;;;;;51.85;22.80;;;1.50;99.90;;;;;;5034275;28;20523;-54
2022/02/26 02:54:00;;;;;;;48.65;24.30;;;1.50;99.90;;;;;;5034451;28;20524;-55
2022/02/26 02:56:25;;;;;;;50.58;24.42;;;1.60;99.90;;;;;;5033966;28;20410;-55
2022/02/26 02:58:51;;;;;;;53.72;23.55;;;1.70;99.90;;;;;;5034197;28;20017;-55
2022/02/26 03:01:17;;;;;;;55.00;24.52;;;1.80;99.90;;;;;;5033748;28;20087;-55
2022/02/26 03:03:42;;;;;;;53.90;23.67;;;1.80;99.90;;;;;;5034157;28;20032;-55
2022/02/26 03:06:09;;;;;;;52.65;23.67;;;2.00;99.90;;;;;;5034028;28;20052;-55
2022/02/26 03:08:35;;;;;;;55.13;23.17;;;2.00;99.90;;;;;;5033725;28;20440;-55
2022/02/26 03:11:00;;;;;;;46.45;21.67;;;2.00;99.90;;;;;;5034287;28;20049;-55
2022/02/26 03:13:28;;;;;;;38.40;19.50;;;2.00;99.90;;;;;;5033595;28;20025;-54
2022/02/26 03:15:55;;;;;;;35.97;18.95;;;1.90;99.90;;;;;;5033935;28;20030;-55
2022/02/26 03:18:22;;;;;;;30.92;17.15;;;1.70;99.90;;;;;;5032425;28;20057;-55
2022/02/26 03:20:48;;;;;;;36.17;18.10;;;1.40;99.90;;;;;;5033844;28;20029;-54
2022/02/26 03:23:14;;;;;;;34.78;18.85;;;1.20;99.90;;;;;;5033836;28;20430;-54
2022/02/26 03:25:40;;;;;;;40.03;20.23;;;1.10;99.90;;;;;;5033562;28;20025;-54
2022/02/26 03:28:06;;;;;;;39.83;20.42;;;0.90;99.90;;;;;;5034168;28;20438;-52
2022/02/26 03:30:32;;;;;;;52.17;25.10;;;0.90;99.90;;;;;;5033957;28;20040;-55
2022/02/26 03:32:58;;;;;;;47.17;23.23;;;0.90;99.90;;;;;;5034059;28;20086;-54
2022/02/26 03:35:24;;;;;;;45.50;21.50;;;0.90;99.90;;;;;;5033622;28;20104;-55
2022/02/26 03:37:50;;;;;;;42.13;22.10;;;0.80;99.90;;;;;;5033434;28;20029;-55
2022/02/26 03:40:16;;;;;;;44.05;21.08;;;0.70;99.90;;;;;;5033354;28;20025;-54
2022/02/26 03:42:42;;;;;;;42.25;22.33;;;0.50;99.90;;;;;;5033448;28;20033;-55
2022/02/26 03:45:10;;;;;;;50.90;23.25;;;0.40;99.90;;;;;;5033809;28;20037;-54
2022/02/26 03:47:36;;;;;;;56.42;25.77;;;0.40;99.90;;;;;;5033117;28;20064;-55
2022/02/26 03:50:03;;;;;;;52.25;25.05;;;0.40;99.90;;;;;;5033117;28;20029;-55
2022/02/26 03:52:29;;;;;;;40.95;24.17;;;0.40;99.90;;;;;;5032322;28;20028;-55
2022/02/26 03:54:55;;;;;;;44.67;22.67;;;0.40;99.90;;;;;;5032868;28;20108;-55
2022/02/26 03:57:21;;;;;;;48.70;25.95;;;0.40;99.90;;;;;;5033010;28;20041;-54
2022/02/26 03:59:47;;;;;;;56.70;27.05;;;0.40;99.90;;;;;;5032979;28;20033;-54
2022/02/26 04:02:13;;;;;;;57.67;27.95;;;0.40;99.90;;;;;;5033010;28;20113;-54
2022/02/26 04:04:39;;;;;;;41.13;25.05;;;0.40;99.90;;;;;;5032901;28;20049;-54
2022/02/26 04:07:05;;;;;;;51.25;28.58;;;0.30;99.90;;;;;;5032641;28;20017;-54
2022/02/26 04:09:31;;;;;;;49.20;27.63;;;0.20;99.90;;;;;;5032715;28;20091;-54
2022/02/26 04:11:57;;;;;;;51.55;27.80;;;0.20;99.90;;;;;;5032991;28;20432;-54
2022/02/26 04:14:22;;;;;;;68.75;29.83;;;0.00;99.90;;;;;;5033169;28;20104;-54
2022/02/26 04:16:48;;;;;;;60.28;29.00;;;0.00;99.90;;;;;;5032655;28;20152;-54
2022/02/26 04:19:14;;;;;;;56.25;27.02;;;0.00;99.90;;;;;;5032627;28;20036;-55
2022/02/26 04:21:40;;;;;;;49.10;26.83;;;0.00;99.90;;;;;;5031277;28;20032;-54
2022/02/26 04:24:06;;;;;;;52.22;28.52;;;0.00;99.90;;;;;;5032649;28;20112;-54
2022/02/26 04:26:31;;;;;;;58.50;29.05;;;0.00;99.90;;;;;;5032815;28;20160;-55
2022/02/26 04:28:57;;;;;;;66.25;32.10;;;0.10;99.90;;;;;;5032846;28;20033;-54
2022/02/26 04:31:23;;;;;;;62.97;32.88;;;0.20;99.90;;;;;;5032132;28;20073;-55
2022/02/26 04:33:49;;;;;;;50.33;28.42;;;0.40;99.90;;;;;;5032480;28;20101;-55
2022/02/26 04:36:15;;;;;;;52.63;27.80;;;0.40;99.90;;;;;;5032291;28;20163;-55
2022/02/26 04:38:42;;;;;;;50.83;24.65;;;0.40;99.90;;;;;;5032413;28;20029;-55
2022/02/26 04:41:08;;;;;;;55.13;27.88;;;0.40;99.90;;;;;;5032304;28;20029;-54
2022/02/26 04:43:38;;;;;;;52.05;29.58;;;0.50;99.90;;;;;;5032214;28;20035;-54
2022/02/26 04:46:04;;;;;;;54.15;28.02;;;0.40;99.90;;;;;;5032232;28;20056;-54
2022/02/26 04:48:31;;;;;;;54.03;26.60;;;0.40;99.90;;;;;;5031906;28;20461;-54
2022/02/26 04:50:58;;;;;;;46.03;26.25;;;0.30;99.90;;;;;;5032377;28;20053;-52
2022/02/26 04:53:23;;;;;;;46.75;25.52;;;0.30;99.90;;;;;;5032243;28;20028;-52
2022/02/26 04:55:50;;;;;;;57.88;27.88;;;0.20;99.90;;;;;;5032282;28;20025;-54
2022/02/26 04:58:16;;;;;;;62.72;30.30;;;0.20;99.90;;;;;;5031758;28;20088;-54
2022/02/26 05:00:42;;;;;;;63.97;31.42;;;0.20;99.90;;;;;;5031818;28;20490;-55
2022/02/26 05:03:08;;;;;;;57.85;29.95;;;0.20;99.90;;;;;;5031970;28;20017;-52
2022/02/26 05:05:33;;;;;;;62.92;29.08;;;0.20;99.90;;;;;;5031920;28;20037;-54
2022/02/26 05:07:59;;;;;;;59.10;28.73;;;0.10;99.90;;;;;;5031640;28;20022;-54
2022/02/26 05:10:25;;;;;;;49.47;28.65;;;0.00;99.90;;;;;;5030258;28;20276;-54
2022/02/26 05:12:50;;;;;;;49.72;28.08;;;0.00;99.90;;;;;;5031474;28;20057;-54
2022/02/26 05:15:16;;;;;;;57.60;29.88;;;0.00;99.90;;;;;;5031404;28;20061;-54
2022/02/26 05:17:42;;;;;;;55.83;29.10;;;0.00;99.90;;;;;;5031932;28;20518;-54
2022/02/26 05:20:09;;;;;;;55.53;30.50;;;0.00;99.90;;;;;;5031597;28;20100;-55
2022/02/26 05:22:36;;;;;;;67.38;32.60;;;0.00;99.90;;;;;;5031403;28;20029;-54
2022/02/26 05:25:04;;;;;;;64.13;32.22;;;0.00;99.90;;;;;;5031556;28;20025;-54
2022/02/26 05:27:32;;;;;;;57.92;31.73;;;0.00;99.90;;;;;;5031275;28;20034;-54
2022/02/26 05:29:58;;;;;;;51.63;30.50;;;0.00;99.90;;;;;;5029767;28;20100;-54
2022/02/26 05:32:26;;;;;;;57.85;32.50;;;0.00;99.90;;;;;;5031303;28;20220;-54
2022/02/26 05:34:52;;;;;;;57.17;31.98;;;0.10;99.90;;;;;;5031544;28;20028;-54
2022/02/26 05:37:19;;;;;;;65.05;32.30;;;0.10;99.90;;;;;;5031678;28;20018;-55
2022/02/26 05:39:45;;;;;;;59.63;30.92;;;0.00;99.90;;;;;;5031470;28;20029;-52
2022/02/26 05:42:11;;;;;;;57.17;31.67;;;0.00;99.90;;;;;;5031439;28;20026;-53
2022/02/26 05:44:40;;;;;;;64.82;31.52;;;0.10;99.90;;;;;;5031564;28;20109;-53
2022/02/26 05:47:06;;;;;;;59.15;31.08;;;0.10;99.90;;;;;;5031254;28;20530;-53
2022/02/26 05:49:32;;;;;;;61.10;29.35;;;0.10;99.90;;;;;;5031229;28;20076;-54
2022/02/26 05:51:57;;;;;;;55.15;29.05;;;0.00;99.90;;;;;;5030815;28;20144;-54
2022/02/26 05:54:23;;;;;;;61.60;31.13;;;0.00;99.90;;;;;;5031296;28;20115;-53
2022/02/26 05:56:49;;;;;;;52.92;29.40;;;0.10;99.90;;;;;;5030987;28;20429;-54
2022/02/26 05:59:15;;;;;;;62.50;30.10;;;0.20;99.90;;;;;;5029371;28;20025;-53
2022/02/26 06:01:40;;;;;;;61.67;29.40;;;0.20;99.90;;;;;;5031283;28;20033;-56
2022/02/26 06:04:06;;;;;;;60.53;29.20;;;0.20;99.90;;;;;;5031078;28;20101;-54
2022/02/26 06:06:32;;;;;;;63.22;31.20;;;0.30;99.90;;;;;;5031165;28;20057;-54
2022/02/26 06:08:57;;;;;;;56.88;30.02;;;0.30;99.90;;;;;;5031079;28;20060;-53
2022/02/26 06:11:23;;;;;;;58.58;29.70;;;0.30;99.90;;;;;;5031206;28;20025;-54
2022/02/26 06:13:49;;;;;;;55.42;29.58;;;0.30;99.90;;;;;;5031009;28;20442;-54
2022/02/26 06:16:15;;;;;;;57.17;31.25;;;0.20;99.90;;;;;;5030653;28;20064;-53
2022/02/26 06:18:41;;;;;;;67.00;30.20;;;0.20;99.90;;;;;;5030637;28;20104;-55
2022/02/26 06:21:07;;;;;;;55.20;30.45;;;0.10;99.90;;;;;;5030955;28;20057;-54
2022/02/26 06:23:32;;;;;;;61.78;30.60;;;0.10;99.90;;;;;;5031263;28;20098;-54
2022/02/26 06:25:58;;;;;;;51.40;27.40;;;0.10;99.90;;;;;;5030727;28;20029;-55
2022/02/26 06:28:23;;;;;;;56.53;30.85;;;0.10;99.90;;;;;;5030718;28;20105;-55
2022/02/26 06:30:49;;;;;;;56.35;30.60;;;0.10;99.90;;;;;;5030359;28;20044;-55
2022/02/26 06:33:15;;;;;;;58.40;29.17;;;0.10;99.90;;;;;;5030654;28;20033;-54
2022/02/26 06:35:41;;;;;;;60.80;31.33;;;0.10;99.90;;;;;;5031323;28;20132;-54
2022/02/26 06:38:07;;;;;;;62.92;31.55;;;0.10;99.90;;;;;;5030242;28;20048;-54
2022/02/26 06:40:33;;;;;;;68.30;31.52;;;0.20;99.90;;;;;;5031122;28;20522;-53
2022/02/26 06:42:59;;;;;;;56.50;28.88;;;0.20;99.90;;;;;;5030714;28;20065;-54
2022/02/26 06:45:24;;;;;;;57.65;29.23;;;0.20;99.90;;;;;;5030554;28;20068;-53
2022/02/26 06:47:50;;;;;;;54.72;28.95;;;0.20;99.90;;;;;;5030239;28;20120;-54
2022/02/26 06:50:16;;;;;;;55.45;29.70;;;0.20;99.90;;;;;;5030348;28;20022;-53
2022/02/26 06:52:42;;;;;;;64.28;32.55;;;0.20;99.90;;;;;;5030248;28;20028;-53
2022/02/26 06:55:08;;;;;;;59.20;30.38;;;0.30;99.90;;;;;;5030274;28;20033;-54
2022/02/26 06:57:34;;;;;;;60.92;31.17;;;0.30;99.90;;;;;;5030403;28;20029;-54
2022/02/26 06:59:59;;;;;;;57.72;31.08;;;0.40;99.90;;;;;;5030210;28;20033;-54
2022/02/26 07:02:26;;;;;;;54.45;30.48;;;0.50;99.90;;;;;;5030139;28;20040;-53
2022/02/26 07:04:52;;;;;;;56.92;30.33;;;0.50;99.90;;;;;;5030386;28;20077;-53
2022/02/26 07:07:17;;;;;;;58.35;32.83;;;0.40;99.90;;;;;;5030398;28;20503;-53
2022/02/26 07:09:43;;;;;;;56.35;31.80;;;0.40;99.90;;;;;;5030225;28;20056;-54
2022/02/26 07:12:09;;;;;;;57.10;31.63;;;0.30;99.90;;;;;;5030488;28;20445;-54
2022/02/26 07:14:35;;;;;;;54.75;30.67;;;0.30;99.90;;;;;;5030427;28;20022;-54
2022/02/26 07:17:01;;;;;;;65.60;31.50;;;0.30;99.90;;;;;;5029452;28;20033;-54
2022/02/26 07:19:27;;;;;;;53.15;30.10;;;0.30;99.90;;;;;;5030036;28;20364;-54
2022/02/26 07:21:52;;;;;;;66.65;31.38;;;0.40;99.90;;;;;;5030037;28;20040;-54
2022/02/26 07:24:18;;;;;;;48.92;29.98;;;0.40;99.90;;;;;;5030376;28;20034;-54
2022/02/26 07:26:43;;;;;;;51.55;29.48;;;0.50;99.90;;;;;;5031236;28;20108;-54
2022/02/26 07:29:09;;;;;;;53.80;29.50;;;0.50;99.90;;;;;;5033780;28;20039;-54
2022/02/26 07:31:35;;;;;;;58.67;28.70;;;0.60;99.90;;;;;;5033441;28;20199;-54
2022/02/26 07:34:01;;;;;;;57.25;29.50;;;0.60;99.90;;;;;;5033692;28;20236;-54
2022/02/26 07:36:27;;;;;;;57.75;31.13;;;0.60;99.90;;;;;;5033811;28;20072;-54
2022/02/26 07:38:52;;;;;;;55.92;29.55;;;0.60;99.90;;;;;;5033664;28;20163;-54
2022/02/26 07:41:18;;;;;;;61.83;31.85;;;0.70;99.90;;;;;;5033427;28;20037;-54
2022/02/26 07:43:44;;;;;;;59.42;30.90;;;0.70;99.90;;;;;;5033628;28;20079;-54
2022/02/26 07:46:09;;;;;;;55.78;31.25;;;0.80;99.90;;;;;;5033207;28;20030;-54
2022/02/26 07:48:35;;;;;;;58.17;30.63;;;0.90;99.90;;;;;;5033580;28;20021;-54
2022/02/26 07:51:01;;;;;;;55.17;30.92;;;1.00;99.90;;;;;;5031898;28;20021;-54
2022/02/26 07:53:27;;;;;;;55.72;31.17;;;1.20;99.90;;;;;;5033566;28;20029;-54
2022/02/26 07:55:53;;;;;;;49.78;29.00;;;1.20;99.90;;;;;;5032776;28;20029;-54
2022/02/26 07:58:21;;;;;;;56.88;28.67;;;1.20;99.90;;;;;;5033353;28;20053;-54
2022/02/26 08:00:47;;;;;;;52.88;28.55;;;1.20;99.90;;;;;;5033275;28;20022;-54
2022/02/26 08:03:12;;;;;;;55.72;27.80;;;1.30;99.90;;;;;;5032937;28;20041;-54
2022/02/26 08:05:38;;;;;;;48.47;26.58;;;1.30;99.90;;;;;;5033204;28;20030;-54
2022/02/26 08:08:05;;;;;;;44.92;28.30;;;1.30;99.90;;;;;;5033109;28;20032;-54
2022/02/26 08:10:30;;;;;;;52.63;28.45;;;1.30;99.90;;;;;;5033103;28;20131;-54
2022/02/26 08:12:57;;;;;;;50.53;27.58;;;1.40;99.90;;;;;;5032977;28;20030;-54
2022/02/26 08:15:25;;;;;;;54.22;28.02;;;1.40;99.90;;;;;;5032888;28;20172;-54
2022/02/26 08:17:51;;;;;;;54.97;28.77;;;1.50;99.90;;;;;;5032983;28;20066;-54
2022/02/26 08:20:18;;;;;;;57.63;27.52;;;1.70;99.90;;;;;;5033711;28;20040;-54
2022/02/26 08:22:44;;;;;;;43.17;27.75;;;1.80;99.90;;;;;;5032978;28;20036;-54
2022/02/26 08:25:11;;;;;;;47.50;24.92;;;2.00;99.90;;;;;;5032896;28;20033;-54
2022/02/26 08:27:37;;;;;;;35.65;18.48;;;2.70;99.90;;;;;;5032773;28;20061;-54
2022/02/26 08:30:06;;;;;;;31.75;18.20;;;3.40;99.90;;;;;;5032707;28;20037;-54
2022/02/26 08:32:32;;;;;;;35.60;17.17;;;4.00;99.90;;;;;;5032760;28;20446;-58
2022/02/26 08:34:57;;;;;;;28.20;15.45;;;4.60;99.90;;;;;;5033746;28;20049;-54
2022/02/26 08:37:23;;;;;;;36.90;16.15;;;5.20;99.90;;;;;;5031606;28;20025;-54
2022/02/26 08:39:49;;;;;;;28.23;15.80;;;6.10;99.90;;;;;;5032368;28;20021;-54
2022/02/26 08:42:14;;;;;;;27.48;15.25;;;6.30;99.90;;;;;;5032158;28;20021;-54
2022/02/26 08:44:40;;;;;;;30.02;15.07;;;6.60;99.90;;;;;;5032612;28;20053;-54
2022/02/26 08:47:07;;;;;;;25.23;13.77;;;6.90;99.90;;;;;;5032390;28;20501;-54
2022/02/26 08:49:33;;;;;;;26.00;14.80;;;7.00;99.90;;;;;;5032161;28;20026;-54
2022/02/26 08:51:59;;;;;;;26.60;14.45;;;6.80;99.90;;;;;;5032010;28;20017;-54
2022/02/26 08:54:25;;;;;;;20.52;13.20;;;7.60;99.90;;;;;;5031981;28;20022;-55
2022/02/26 08:56:50;;;;;;;26.77;13.68;;;7.80;99.90;;;;;;5032465;28;20501;-54
2022/02/26 08:59:16;;;;;;;23.63;12.82;;;7.80;99.90;;;;;;5031845;28;20040;-54
2022/02/26 09:01:42;;;;;;;24.33;14.13;;;7.50;99.90;;;;;;5031649;28;20101;-54
2022/02/26 09:04:08;;;;;;;27.02;14.65;;;7.30;99.90;;;;;;5031852;28;20383;-54
2022/02/26 09:06:35;;;;;;;31.30;14.25;;;7.80;99.90;;;;;;5031717;28;20029;-55
2022/02/26 09:09:01;;;;;;;26.58;13.35;;;8.10;99.90;;;;;;5031525;28;20097;-54
2022/02/26 09:11:27;;;;;;;22.83;13.77;;;8.10;99.90;;;;;;5031762;28;20021;-54
2022/02/26 09:13:53;;;;;;;30.00;13.73;;;8.10;99.90;;;;;;5031934;28;20026;-54
2022/02/26 09:16:19;;;;;;;28.77;13.30;;;8.60;99.90;;;;;;5031377;28;20113;-54
2022/02/26 09:18:45;;;;;;;26.13;12.95;;;8.10;99.90;;;;;;5031861;28;20034;-54
2022/02/26 09:21:10;;;;;;;36.03;13.68;;;7.80;99.90;;;;;;5032098;28;20022;-54
2022/02/26 09:23:37;;;;;;;26.00;13.27;;;7.90;99.90;;;;;;5032187;28;20033;-54
2022/02/26 09:26:04;;;;;;;23.58;12.02;;;8.30;99.90;;;;;;5032078;28;20033;-54
2022/02/26 09:28:35;;;;;;;24.52;11.73;;;8.60;99.90;;;;;;5031965;28;20494;-54
2022/02/26 09:31:02;;;;;;;27.50;12.55;;;8.40;99.90;;;;;;5030603;28;20073;-54
2022/02/26 09:33:30;;;;;;;24.35;11.50;;;8.80;99.90;;;;;;5031489;28;20037;-54
2022/02/26 09:35:57;;;;;;;25.67;11.57;;;8.20;99.90;;;;;;5031607;28;20068;-54
2022/02/26 09:38:23;;;;;;;21.65;10.15;;;9.00;99.90;;;;;;5031410;28;20285;-54
2022/02/26 09:40:49;;;;;;;19.92;10.65;;;9.20;99.90;;;;;;5031964;28;20049;-54
2022/02/26 09:43:15;;;;;;;19.63;9.57;;;9.30;99.90;;;;;;5031899;28;20425;-54
2022/02/26 09:45:40;;;;;;;23.08;9.68;;;8.90;99.90;;;;;;5031708;28;20034;-54
2022/02/26 09:48:06;;;;;;;25.70;10.07;;;8.80;99.90;;;;;;5031113;28;20544;-54
2022/02/26 09:50:32;;;;;;;20.10;9.52;;;8.80;99.90;;;;;;5029995;28;20471;-54
2022/02/26 09:52:58;;;;;;;20.02;9.18;;;9.10;99.90;;;;;;5030145;28;20221;-54
2022/02/26 09:55:24;;;;;;;20.08;9.88;;;9.10;99.90;;;;;;5031079;28;20033;-55
2022/02/26 09:57:50;;;;;;;23.13;9.43;;;8.90;99.90;;;;;;5031315;28;20387;-55
2022/02/26 10:00:16;;;;;;;21.58;8.70;;;8.90;99.90;;;;;;5031000;28;20048;-55
2022/02/26 10:02:48;;;;;;;20.88;8.38;;;9.10;99.90;;;;;;5030100;28;20029;-55
2022/02/26 10:05:14;;;;;;;22.90;8.43;;;9.00;99.90;;;;;;5031213;28;20040;-55
2022/02/26 10:07:41;;;;;;;26.35;8.65;;;9.20;99.90;;;;;;5029942;28;20022;-55
2022/02/26 10:10:14;;;;;;;18.45;8.13;;;9.20;99.90;;;;;;5030971;28;20135;-55
2022/02/26 10:12:40;;;;;;;19.20;7.88;;;9.30;99.90;;;;;;5031361;28;20503;-55
2022/02/26 10:15:21;;;;;;;15.07;7.05;;;9.30;99.90;;;;;;5031385;28;20029;-56
2022/02/26 10:18:02;;;;;;;22.80;8.05;;;9.50;99.90;;;;;;5031049;28;20036;-55
2022/02/26 10:20:28;;;;;;;18.20;7.28;;;9.40;99.90;;;;;;5030720;28;20032;-55
2022/02/26 10:22:55;;;;;;;18.35;6.95;;;9.50;99.90;;;;;;5030605;28;20112;-55
2022/02/26 10:25:24;;;;;;;20.25;6.90;;;9.70;99.90;;;;;;5031448;28;20437;-55
2022/02/26 10:27:53;;;;;;;20.25;7.13;;;9.60;99.90;;;;;;5031028;28;20021;-55
2022/02/26 10:30:27;;;;;;;23.58;8.48;;;9.80;99.90;;;;;;5030155;28;20114;-54
2022/02/26 10:33:31;;;;;;;18.15;7.85;;;10.00;99.90;;;;;;5030399;28;20113;-54
2022/02/26 10:36:04;;;;;;;23.58;7.95;;;10.20;99.90;;;;;;5028665;28;20041;-55
2022/02/26 10:38:32;;;;;;;24.65;8.40;;;10.50;99.90;;;;;;5030036;28;20100;-55
2022/02/26 10:41:13;;;;;;;22.83;7.93;;;10.30;99.90;;;;;;5030184;28;20167;-55
2022/02/26 10:43:41;;;;;;;22.73;7.43;;;10.30;99.90;;;;;;5029852;28;20029;-55
2022/02/26 10:46:21;;;;;;;24.15;8.65;;;10.50;99.90;;;;;;5029756;28;20044;-55
2022/02/26 10:48:48;;;;;;;24.40;8.63;;;10.80;99.90;;;;;;5030174;28;20025;-55
2022/02/26 10:51:20;;;;;;;21.50;9.30;;;11.00;99.90;;;;;;5029938;28;20542;-55
2022/02/26 10:53:46;;;;;;;22.35;6.60;;;11.00;99.90;;;;;;5030550;28;20026;-55
2022/02/26 10:56:13;;;;;;;18.67;7.18;;;10.90;99.90;;;;;;5029691;28;20025;-55
2022/02/26 10:58:41;;;;;;;19.60;7.32;;;11.00;99.90;;;;;;5030269;28;20025;-55
2022/02/26 11:01:18;;;;;;;18.67;7.65;;;10.60;99.90;;;;;;5032693;28;20018;-55
2022/02/26 11:03:44;;;;;;;22.48;8.40;;;10.10;99.90;;;;;;5035096;28;20017;-55
2022/02/26 11:06:12;;;;;;;18.67;8.52;;;10.10;99.90;;;;;;5033752;28;20029;-54
2022/02/26 11:08:39;;;;;;;21.20;7.55;;;10.60;99.90;;;;;;5033492;28;20028;-55
2022/02/26 11:11:06;;;;;;;20.92;6.88;;;10.80;99.90;;;;;;5033467;28;20024;-55
2022/02/26 11:13:33;;;;;;;22.42;7.60;;;10.80;99.90;;;;;;5033673;28;20378;-55
2022/02/26 11:16:01;;;;;;;17.20;7.10;;;10.70;99.90;;;;;;5034333;28;20052;-55
2022/02/26 11:18:38;;;;;;;27.17;9.52;;;10.80;99.90;;;;;;5033677;28;20056;-55
2022/02/26 11:21:08;;;;;;;27.98;9.82;;;10.80;99.90;;;;;;5032183;28;20478;-55
2022/02/26 11:23:35;;;;;;;25.48;10.57;;;11.00;99.90;;;;;;5033511;28;20041;-55
2022/02/26 11:26:00;;;;;;;21.55;8.10;;;10.90;99.90;;;;;;5032982;28;20017;-55
2022/02/26 11:28:27;;;;;;;23.67;9.15;;;10.90;99.90;;;;;;5033525;28;20510;-55
2022/02/26 11:30:59;;;;;;;24.73;9.43;;;11.00;99.90;;;;;;5044093;28;20091;-55
2022/02/26 11:33:25;;;;;;;26.75;10.25;;;11.00;99.90;;;;;;5044172;28;20025;-55
2022/02/26 11:35:52;;;;;;;22.48;9.27;;;11.60;99.90;;;;;;5033203;28;20038;-55
2022/02/26 11:38:19;;;;;;;29.42;10.07;;;11.70;99.90;;;;;;5032991;28;20072;-55
2022/02/26 11:40:49;;;;;;;24.85;11.63;;;11.70;99.90;;;;;;5032954;28;20402;-55
2022/02/26 11:43:44;;;;;;;25.90;10.88;;;11.20;99.90;;;;;;5033295;28;20018;-54
2022/02/26 11:46:34;;;;;;;28.70;11.65;;;11.50;99.90;;;;;;5032860;28;20072;-55
2022/02/26 11:49:18;;;;;;;22.63;9.13;;;11.30;99.90;;;;;;5032999;28;20025;-54
2022/02/26 11:51:46;;;;;;;28.90;11.45;;;11.20;99.90;;;;;;5033389;28;20367;-54
2022/02/26 11:54:22;;;;;;;19.80;8.45;;;11.20;99.90;;;;;;5033574;28;20029;-55
2022/02/26 11:57:02;;;;;;;18.85;7.55;;;10.90;99.90;;;;;;5033439;28;20033;-54
2022/02/26 11:59:41;;;;;;;15.57;6.93;;;10.90;99.90;;;;;;5033384;28;20025;-54
2022/02/26 12:02:13;;;;;;;19.55;7.80;;;11.30;99.90;;;;;;5031323;28;20053;-54
2022/02/26 12:04:59;;;;;;;14.93;5.67;;;11.60;99.90;;;;;;5033062;28;20022;-55
2022/02/26 12:07:45;;;;;;;16.80;6.32;;;11.70;99.90;;;;;;5033016;28;20483;-54
2022/02/26 12:10:13;;;;;;;16.25;6.10;;;11.50;99.90;;;;;;5032370;28;20025;-55
2022/02/26 12:12:48;;;;;;;16.08;6.78;;;11.90;99.90;;;;;;5031533;28;20040;-55
2022/02/26 12:15:19;;;;;;;17.10;6.60;;;12.20;99.90;;;;;;5032408;28;20039;-55
2022/02/26 12:17:54;;;;;;;19.63;7.20;;;12.30;99.90;;;;;;5032893;28;20066;-54
2022/02/26 12:20:22;;;;;;;15.80;6.50;;;12.30;99.90;;;;;;5032210;28;20021;-55
2022/02/26 12:22:49;;;;;;;19.50;6.93;;;12.90;99.90;;;;;;5032346;28;20318;-55
2022/02/26 12:25:16;;;;;;;20.40;6.70;;;12.50;99.90;;;;;;5032396;28;20091;-55
2022/02/26 12:27:43;;;;;;;12.57;6.25;;;12.80;99.90;;;;;;5031142;28;20117;-55
2022/02/26 12:30:11;;;;;;;17.17;6.97;;;13.10;99.90;;;;;;5031859;28;20087;-55
2022/02/26 12:33:04;;;;;;;12.10;5.55;;;13.60;99.90;;;;;;5032361;28;20022;-55
2022/02/26 12:35:35;;;;;;;15.35;5.40;;;13.50;99.90;;;;;;5032422;28;20556;-55
2022/02/26 12:38:02;;;;;;;13.07;5.47;;;13.50;99.90;;;;;;5032022;28;20048;-55
2022/02/26 12:40:33;;;;;;;13.55;4.80;;;14.10;99.90;;;;;;5031776;28;20090;-55